This is the latest recevied weather packets stored in our database for station/object EA1IRT-1. If no packets are shown the sender has not sent any weather packets the latest 10 day(s).
| Time | Temp. | Humidity | Pressure | Rain* | Wind** | Luminosity | Snow |
|---|---|---|---|---|---|---|---|
| 1778159864 | 20.56° C | 66% | 1009.5 hPa | - | - | - | - |
| 1778158973 | 19.44° C | 63% | 1009.6 hPa | - | - | - | - |
| 1778157138 | 18.89° C | 67% | 1009.9 hPa | - | - | - | - |
| 1778156245 | 20° C | 66% | 1009.9 hPa | - | - | - | - |
| 1778155338 | 19.44° C | 65% | 1010.2 hPa | - | - | - | - |
| 1778154438 | 20° C | 64% | 1010.4 hPa | - | - | - | - |
| 1778153538 | 19.44° C | 64% | 1010.5 hPa | - | - | - | - |
| 1778152638 | 19.44° C | 62% | 1010.4 hPa | - | - | - | - |
| 1778150838 | 18.89° C | 68% | 1010.7 hPa | - | - | - | - |
| 1778149945 | 19.44° C | 64% | 1010.8 hPa | - | - | - | - |
| 1778149038 | 19.44° C | 64% | 1010.8 hPa | - | - | - | - |
| 1778148138 | 18.89° C | 66% | 1010.9 hPa | - | - | - | - |
| 1778147238 | 19.44° C | 63% | 1010.9 hPa | - | - | - | - |
| 1778146338 | 19.44° C | 64% | 1011.1 hPa | - | - | - | - |
| 1778145444 | 18.89° C | 67% | 1011.1 hPa | - | - | - | - |
| 1778144537 | 17.78° C | 74% | 1011.2 hPa | - | - | - | - |
| 1778143637 | 17.78° C | 77% | 1011.2 hPa | - | - | - | - |
| 1778142737 | 16.67° C | 80% | 1011.3 hPa | - | - | - | - |
| 1778141837 | 16.11° C | 84% | 1011.4 hPa | - | - | - | - |
| 1778140944 | 16.11° C | 82% | 1011.4 hPa | - | - | - | - |
| 1778140037 | 16.11° C | 84% | 1011.3 hPa | - | - | - | - |
| 1778139137 | 16.11° C | 86% | 1011.4 hPa | - | - | - | - |
| 1778137344 | 15.56° C | 91% | 1011.7 hPa | - | - | - | - |
| 1778136437 | 15° C | 94% | 1011.6 hPa | - | - | - | - |
| 1778135537 | 14.44° C | 99% | 1011.6 hPa | - | - | - | - |
* Rain since midnight (hover to see other rain measurements)
** Current wind speed in m/s (hover to see current wind gust speed)